sensor_id;sensor_type;location;lat;lon;timestamp;temperature;humidity
52787;DHT22;38661;53.152;5.846;2022-12-17T00:00:58;-3275.90;98.50
52787;DHT22;38661;53.152;5.846;2022-12-17T00:03:43;-3275.90;98.40
52787;DHT22;38661;53.152;5.846;2022-12-17T00:06:27;-3275.90;98.30
52787;DHT22;38661;53.152;5.846;2022-12-17T00:09:12;-3275.90;98.30
52787;DHT22;38661;53.152;5.846;2022-12-17T00:11:56;-3275.80;98.30
52787;DHT22;38661;53.152;5.846;2022-12-17T00:14:39;-3275.80;98.20
52787;DHT22;38661;53.152;5.846;2022-12-17T00:17:23;-3275.80;98.20
52787;DHT22;38661;53.152;5.846;2022-12-17T00:20:08;-3275.80;98.10
52787;DHT22;38661;53.152;5.846;2022-12-17T00:23:00;-3275.80;98.30
52787;DHT22;38661;53.152;5.846;2022-12-17T00:25:52;-3275.80;98.20
52787;DHT22;38661;53.152;5.846;2022-12-17T00:28:37;-3275.80;98.40
52787;DHT22;38661;53.152;5.846;2022-12-17T00:31:21;-3275.90;98.30
52787;DHT22;38661;53.152;5.846;2022-12-17T00:34:05;-3275.80;98.40
52787;DHT22;38661;53.152;5.846;2022-12-17T00:36:49;-3275.80;98.40
52787;DHT22;38661;53.152;5.846;2022-12-17T00:39:33;-3275.80;98.50
52787;DHT22;38661;53.152;5.846;2022-12-17T00:42:17;-3275.80;98.40
52787;DHT22;38661;53.152;5.846;2022-12-17T00:45:02;-3275.80;98.50
52787;DHT22;38661;53.152;5.846;2022-12-17T00:47:46;-3275.70;98.40
52787;DHT22;38661;53.152;5.846;2022-12-17T00:50:32;-3275.70;98.40
52787;DHT22;38661;53.152;5.846;2022-12-17T00:53:16;-3275.70;98.50
52787;DHT22;38661;53.152;5.846;2022-12-17T00:56:00;-3275.60;98.50
52787;DHT22;38661;53.152;5.846;2022-12-17T00:58:44;-3275.60;98.60
52787;DHT22;38661;53.152;5.846;2022-12-17T01:01:28;-3275.60;98.60
52787;DHT22;38661;53.152;5.846;2022-12-17T01:04:13;-3275.60;98.60
52787;DHT22;38661;53.152;5.846;2022-12-17T01:06:57;-3275.60;98.70
52787;DHT22;38661;53.152;5.846;2022-12-17T01:09:42;-3275.60;98.60
52787;DHT22;38661;53.152;5.846;2022-12-17T01:12:26;-3275.60;98.60
52787;DHT22;38661;53.152;5.846;2022-12-17T01:15:10;-3275.60;98.60
52787;DHT22;38661;53.152;5.846;2022-12-17T01:17:55;-3275.60;98.60
52787;DHT22;38661;53.152;5.846;2022-12-17T01:20:39;-3275.60;98.60
52787;DHT22;38661;53.152;5.846;2022-12-17T01:23:23;-3275.60;98.70
52787;DHT22;38661;53.152;5.846;2022-12-17T01:26:07;-3275.60;98.70
52787;DHT22;38661;53.152;5.846;2022-12-17T01:28:51;-3275.60;98.70
52787;DHT22;38661;53.152;5.846;2022-12-17T01:31:35;-3275.60;98.70
52787;DHT22;38661;53.152;5.846;2022-12-17T01:34:19;-3275.60;98.60
52787;DHT22;38661;53.152;5.846;2022-12-17T01:37:03;-3275.60;98.60
52787;DHT22;38661;53.152;5.846;2022-12-17T01:39:47;-3275.60;98.70
52787;DHT22;38661;53.152;5.846;2022-12-17T01:42:43;-3275.60;98.60
52787;DHT22;38661;53.152;5.846;2022-12-17T01:45:38;-3275.60;98.60
52787;DHT22;38661;53.152;5.846;2022-12-17T01:48:31;-3275.60;98.70
52787;DHT22;38661;53.152;5.846;2022-12-17T01:51:17;-3275.60;98.70
52787;DHT22;38661;53.152;5.846;2022-12-17T01:54:02;-3275.60;98.70
52787;DHT22;38661;53.152;5.846;2022-12-17T01:56:47;-3275.60;98.70
52787;DHT22;38661;53.152;5.846;2022-12-17T02:02:29;-3275.60;98.60
52787;DHT22;38661;53.152;5.846;2022-12-17T02:05:14;-3275.70;98.60
52787;DHT22;38661;53.152;5.846;2022-12-17T02:08:04;-3275.60;98.60
52787;DHT22;38661;53.152;5.846;2022-12-17T02:11:10;-3275.60;98.70
52787;DHT22;38661;53.152;5.846;2022-12-17T02:14:18;-3275.60;98.60
52787;DHT22;38661;53.152;5.846;2022-12-17T02:17:08;-3275.60;98.70
52787;DHT22;38661;53.152;5.846;2022-12-17T02:20:07;-3275.70;98.80
52787;DHT22;38661;53.152;5.846;2022-12-17T02:25:54;-3275.70;98.70
52787;DHT22;38661;53.152;5.846;2022-12-17T02:28:42;-3275.70;98.80
52787;DHT22;38661;53.152;5.846;2022-12-17T02:31:29;-3275.80;98.70
52787;DHT22;38661;53.152;5.846;2022-12-17T02:34:13;-3275.80;98.60
52787;DHT22;38661;53.152;5.846;2022-12-17T02:36:57;-3275.80;98.60
52787;DHT22;38661;53.152;5.846;2022-12-17T02:39:42;-3275.70;98.50
52787;DHT22;38661;53.152;5.846;2022-12-17T02:42:27;-3275.80;98.60
52787;DHT22;38661;53.152;5.846;2022-12-17T02:45:13;-3275.70;98.60
52787;DHT22;38661;53.152;5.846;2022-12-17T02:47:59;-3275.70;98.40
52787;DHT22;38661;53.152;5.846;2022-12-17T02:50:44;-3275.70;98.40
52787;DHT22;38661;53.152;5.846;2022-12-17T02:53:31;-3275.70;98.40
52787;DHT22;38661;53.152;5.846;2022-12-17T02:56:15;-3275.70;98.20
52787;DHT22;38661;53.152;5.846;2022-12-17T02:58:59;-3275.70;98.20
52787;DHT22;38661;53.152;5.846;2022-12-17T03:01:43;-3275.70;98.20
52787;DHT22;38661;53.152;5.846;2022-12-17T03:04:27;-3275.70;98.20
52787;DHT22;38661;53.152;5.846;2022-12-17T03:07:11;-3275.70;98.20
52787;DHT22;38661;53.152;5.846;2022-12-17T03:09:55;-3275.60;98.20
52787;DHT22;38661;53.152;5.846;2022-12-17T03:12:39;-3275.70;98.10
52787;DHT22;38661;53.152;5.846;2022-12-17T03:15:23;-3275.70;98.20
52787;DHT22;38661;53.152;5.846;2022-12-17T03:18:07;-3275.70;98.10
52787;DHT22;38661;53.152;5.846;2022-12-17T03:20:52;-3275.70;98.10
52787;DHT22;38661;53.152;5.846;2022-12-17T03:23:37;-3275.70;98.10
52787;DHT22;38661;53.152;5.846;2022-12-17T03:26:21;-3275.60;98.10
52787;DHT22;38661;53.152;5.846;2022-12-17T03:29:05;-3275.70;98.10
52787;DHT22;38661;53.152;5.846;2022-12-17T03:31:50;-3275.70;98.10
52787;DHT22;38661;53.152;5.846;2022-12-17T03:34:34;-3275.70;98.00
52787;DHT22;38661;53.152;5.846;2022-12-17T03:37:18;-3275.60;98.00
52787;DHT22;38661;53.152;5.846;2022-12-17T03:40:03;-3275.60;97.90
52787;DHT22;38661;53.152;5.846;2022-12-17T03:42:47;-3275.60;98.00
52787;DHT22;38661;53.152;5.846;2022-12-17T03:45:31;-3275.60;98.00
52787;DHT22;38661;53.152;5.846;2022-12-17T03:48:15;-3275.60;98.00
52787;DHT22;38661;53.152;5.846;2022-12-17T03:50:59;-3275.70;98.00
52787;DHT22;38661;53.152;5.846;2022-12-17T03:53:44;-3275.60;98.00
52787;DHT22;38661;53.152;5.846;2022-12-17T03:56:29;-3275.60;97.90
52787;DHT22;38661;53.152;5.846;2022-12-17T03:59:13;-3275.60;97.90
52787;DHT22;38661;53.152;5.846;2022-12-17T04:01:57;-3275.60;98.00
52787;DHT22;38661;53.152;5.846;2022-12-17T04:04:42;-3275.60;98.00
52787;DHT22;38661;53.152;5.846;2022-12-17T04:07:26;-3275.60;97.90
52787;DHT22;38661;53.152;5.846;2022-12-17T04:10:10;-3275.60;97.90
52787;DHT22;38661;53.152;5.846;2022-12-17T04:12:54;-3275.60;97.90
52787;DHT22;38661;53.152;5.846;2022-12-17T04:15:38;-3275.60;97.90
52787;DHT22;38661;53.152;5.846;2022-12-17T04:18:23;-3275.60;97.90
52787;DHT22;38661;53.152;5.846;2022-12-17T04:21:07;-3275.60;97.90
52787;DHT22;38661;53.152;5.846;2022-12-17T04:23:51;-3275.60;98.00
52787;DHT22;38661;53.152;5.846;2022-12-17T04:26:35;-3275.60;97.90
52787;DHT22;38661;53.152;5.846;2022-12-17T04:29:19;-3275.60;97.90
52787;DHT22;38661;53.152;5.846;2022-12-17T04:32:03;-3275.60;97.90
52787;DHT22;38661;53.152;5.846;2022-12-17T04:34:47;-3275.60;97.90
52787;DHT22;38661;53.152;5.846;2022-12-17T04:37:31;-3275.60;97.80
52787;DHT22;38661;53.152;5.846;2022-12-17T04:40:29;-3275.60;97.90
52787;DHT22;38661;53.152;5.846;2022-12-17T04:43:13;-3275.60;97.80
52787;DHT22;38661;53.152;5.846;2022-12-17T04:45:57;-3275.70;97.90
52787;DHT22;38661;53.152;5.846;2022-12-17T04:48:42;-3275.70;97.80
52787;DHT22;38661;53.152;5.846;2022-12-17T04:51:26;-3275.70;97.80
52787;DHT22;38661;53.152;5.846;2022-12-17T04:54:11;-3275.70;97.80
52787;DHT22;38661;53.152;5.846;2022-12-17T04:56:55;-3275.70;97.70
52787;DHT22;38661;53.152;5.846;2022-12-17T04:59:39;-3275.70;97.50
52787;DHT22;38661;53.152;5.846;2022-12-17T05:02:23;-3275.60;97.60
52787;DHT22;38661;53.152;5.846;2022-12-17T05:05:07;-3275.60;97.70
52787;DHT22;38661;53.152;5.846;2022-12-17T05:07:53;-3275.60;97.60
52787;DHT22;38661;53.152;5.846;2022-12-17T05:10:37;-3275.60;97.60
52787;DHT22;38661;53.152;5.846;2022-12-17T05:13:22;-3275.60;97.60
52787;DHT22;38661;53.152;5.846;2022-12-17T05:16:06;-3275.60;97.70
52787;DHT22;38661;53.152;5.846;2022-12-17T05:18:50;-3275.60;97.60
52787;DHT22;38661;53.152;5.846;2022-12-17T05:21:35;-3275.60;97.60
52787;DHT22;38661;53.152;5.846;2022-12-17T05:24:19;-3275.50;97.60
52787;DHT22;38661;53.152;5.846;2022-12-17T05:27:03;-3275.50;97.60
52787;DHT22;38661;53.152;5.846;2022-12-17T05:29:47;-3275.50;97.60
52787;DHT22;38661;53.152;5.846;2022-12-17T05:32:31;-3275.50;97.60
52787;DHT22;38661;53.152;5.846;2022-12-17T05:35:15;-3275.60;97.60
52787;DHT22;38661;53.152;5.846;2022-12-17T05:38:04;-3275.60;97.40
52787;DHT22;38661;53.152;5.846;2022-12-17T05:40:49;-3275.60;97.50
52787;DHT22;38661;53.152;5.846;2022-12-17T05:43:33;-3275.60;97.60
52787;DHT22;38661;53.152;5.846;2022-12-17T05:46:18;-3275.60;97.60
52787;DHT22;38661;53.152;5.846;2022-12-17T05:49:02;-3275.60;97.60
52787;DHT22;38661;53.152;5.846;2022-12-17T05:51:46;-3275.70;97.60
52787;DHT22;38661;53.152;5.846;2022-12-17T05:54:30;-3275.70;97.60
52787;DHT22;38661;53.152;5.846;2022-12-17T05:57:14;-3275.80;97.50
52787;DHT22;38661;53.152;5.846;2022-12-17T05:59:58;-3275.70;97.50
52787;DHT22;38661;53.152;5.846;2022-12-17T06:02:42;-3275.70;97.50
52787;DHT22;38661;53.152;5.846;2022-12-17T06:05:27;-3275.80;97.50
52787;DHT22;38661;53.152;5.846;2022-12-17T06:08:11;-3275.80;97.60
52787;DHT22;38661;53.152;5.846;2022-12-17T06:10:58;-3275.80;97.60
52787;DHT22;38661;53.152;5.846;2022-12-17T06:13:42;-3275.80;97.50
52787;DHT22;38661;53.152;5.846;2022-12-17T06:16:27;-3275.80;97.50
52787;DHT22;38661;53.152;5.846;2022-12-17T06:19:11;-3275.80;97.50
52787;DHT22;38661;53.152;5.846;2022-12-17T06:21:55;-3275.80;97.50
52787;DHT22;38661;53.152;5.846;2022-12-17T06:24:39;-3275.80;97.40
52787;DHT22;38661;53.152;5.846;2022-12-17T06:27:23;-3275.90;97.40
52787;DHT22;38661;53.152;5.846;2022-12-17T06:30:07;-3275.90;97.40
52787;DHT22;38661;53.152;5.846;2022-12-17T06:32:51;-3275.90;97.40
52787;DHT22;38661;53.152;5.846;2022-12-17T06:35:45;-3275.90;97.40
52787;DHT22;38661;53.152;5.846;2022-12-17T06:38:29;-3275.90;97.40
52787;DHT22;38661;53.152;5.846;2022-12-17T06:41:13;-3275.80;97.40
52787;DHT22;38661;53.152;5.846;2022-12-17T06:43:57;-3275.80;97.30
52787;DHT22;38661;53.152;5.846;2022-12-17T06:46:41;-3275.90;97.30
52787;DHT22;38661;53.152;5.846;2022-12-17T06:49:26;-3275.80;97.30
52787;DHT22;38661;53.152;5.846;2022-12-17T06:52:10;-3275.90;97.30
52787;DHT22;38661;53.152;5.846;2022-12-17T06:54:54;-3275.90;97.30
52787;DHT22;38661;53.152;5.846;2022-12-17T06:57:38;-3275.90;97.30
52787;DHT22;38661;53.152;5.846;2022-12-17T07:00:22;-3275.80;97.30
52787;DHT22;38661;53.152;5.846;2022-12-17T07:03:10;-3275.80;97.30
52787;DHT22;38661;53.152;5.846;2022-12-17T07:05:54;-3275.80;97.20
52787;DHT22;38661;53.152;5.846;2022-12-17T07:08:38;-3275.80;97.20
52787;DHT22;38661;53.152;5.846;2022-12-17T07:11:22;-3275.80;97.10
52787;DHT22;38661;53.152;5.846;2022-12-17T07:14:06;-3275.80;97.10
52787;DHT22;38661;53.152;5.846;2022-12-17T07:16:50;-3275.80;97.10
52787;DHT22;38661;53.152;5.846;2022-12-17T07:19:34;-3275.70;97.00
52787;DHT22;38661;53.152;5.846;2022-12-17T07:22:18;-3275.70;97.00
52787;DHT22;38661;53.152;5.846;2022-12-17T07:25:03;-3275.60;97.00
52787;DHT22;38661;53.152;5.846;2022-12-17T07:27:54;-3275.70;97.00
52787;DHT22;38661;53.152;5.846;2022-12-17T07:30:39;-3275.60;96.90
52787;DHT22;38661;53.152;5.846;2022-12-17T07:33:23;-3275.50;96.90
52787;DHT22;38661;53.152;5.846;2022-12-17T07:36:07;-3275.50;96.90
52787;DHT22;38661;53.152;5.846;2022-12-17T07:38:51;-3275.50;96.90
52787;DHT22;38661;53.152;5.846;2022-12-17T07:41:52;-3275.50;96.90
52787;DHT22;38661;53.152;5.846;2022-12-17T07:44:36;-3275.50;96.90
52787;DHT22;38661;53.152;5.846;2022-12-17T07:47:20;-3275.50;96.80
52787;DHT22;38661;53.152;5.846;2022-12-17T07:50:05;-3275.50;96.70
52787;DHT22;38661;53.152;5.846;2022-12-17T07:53:03;-3275.40;96.70
52787;DHT22;38661;53.152;5.846;2022-12-17T07:55:47;-3275.40;96.70
52787;DHT22;38661;53.152;5.846;2022-12-17T07:58:31;-3275.40;96.70
52787;DHT22;38661;53.152;5.846;2022-12-17T08:01:15;-3275.40;96.70
52787;DHT22;38661;53.152;5.846;2022-12-17T08:03:59;-3275.40;96.70
52787;DHT22;38661;53.152;5.846;2022-12-17T08:06:43;-3275.40;96.70
52787;DHT22;38661;53.152;5.846;2022-12-17T08:09:27;-3275.40;96.70
52787;DHT22;38661;53.152;5.846;2022-12-17T08:12:12;-3275.30;96.70
52787;DHT22;38661;53.152;5.846;2022-12-17T08:14:56;-3275.30;96.70
52787;DHT22;38661;53.152;5.846;2022-12-17T08:17:40;-3275.30;96.70
52787;DHT22;38661;53.152;5.846;2022-12-17T08:20:24;-3275.30;96.70
52787;DHT22;38661;53.152;5.846;2022-12-17T08:23:08;-3275.30;96.70
52787;DHT22;38661;53.152;5.846;2022-12-17T08:25:52;-3275.20;96.70
52787;DHT22;38661;53.152;5.846;2022-12-17T08:28:36;-3275.30;96.70
52787;DHT22;38661;53.152;5.846;2022-12-17T08:31:22;-3275.30;96.70
52787;DHT22;38661;53.152;5.846;2022-12-17T08:34:07;-3275.30;96.80
52787;DHT22;38661;53.152;5.846;2022-12-17T08:36:51;-3275.30;96.70
52787;DHT22;38661;53.152;5.846;2022-12-17T08:39:35;-3275.30;96.70
52787;DHT22;38661;53.152;5.846;2022-12-17T08:42:19;-3275.30;96.70
52787;DHT22;38661;53.152;5.846;2022-12-17T08:45:04;-3275.30;96.70
52787;DHT22;38661;53.152;5.846;2022-12-17T08:47:48;-3275.30;96.60
52787;DHT22;38661;53.152;5.846;2022-12-17T08:50:32;-3275.30;96.60
52787;DHT22;38661;53.152;5.846;2022-12-17T08:53:16;-3275.30;96.70
52787;DHT22;38661;53.152;5.846;2022-12-17T08:56:00;-3275.30;96.70
52787;DHT22;38661;53.152;5.846;2022-12-17T08:58:45;-3275.30;96.60
52787;DHT22;38661;53.152;5.846;2022-12-17T09:01:29;-3275.30;96.60
52787;DHT22;38661;53.152;5.846;2022-12-17T09:04:13;-3275.30;96.60
52787;DHT22;38661;53.152;5.846;2022-12-17T09:06:57;-3275.30;96.60
52787;DHT22;38661;53.152;5.846;2022-12-17T09:09:41;-3275.40;96.60
52787;DHT22;38661;53.152;5.846;2022-12-17T09:12:25;-3275.30;96.70
52787;DHT22;38661;53.152;5.846;2022-12-17T09:15:09;-3275.40;96.60
52787;DHT22;38661;53.152;5.846;2022-12-17T09:17:53;-3275.40;96.70
52787;DHT22;38661;53.152;5.846;2022-12-17T09:20:37;-3275.40;96.70
52787;DHT22;38661;53.152;5.846;2022-12-17T09:23:22;-3275.50;96.70
52787;DHT22;38661;53.152;5.846;2022-12-17T09:26:06;-3275.50;96.60
52787;DHT22;38661;53.152;5.846;2022-12-17T09:28:50;-3275.50;96.60
52787;DHT22;38661;53.152;5.846;2022-12-17T09:31:35;-3275.50;96.60
52787;DHT22;38661;53.152;5.846;2022-12-17T09:34:19;-3275.50;96.60
52787;DHT22;38661;53.152;5.846;2022-12-17T09:37:04;-3275.60;96.60
52787;DHT22;38661;53.152;5.846;2022-12-17T09:39:48;-3275.60;96.60
52787;DHT22;38661;53.152;5.846;2022-12-17T09:45:42;-3275.60;96.40
52787;DHT22;38661;53.152;5.846;2022-12-17T09:49:00;-3275.60;96.40
52787;DHT22;38661;53.152;5.846;2022-12-17T09:51:45;-3275.60;96.40
52787;DHT22;38661;53.152;5.846;2022-12-17T09:54:35;-3275.70;96.50
52787;DHT22;38661;53.152;5.846;2022-12-17T09:57:23;-3275.70;96.40
52787;DHT22;38661;53.152;5.846;2022-12-17T10:00:23;-3275.80;96.40
52787;DHT22;38661;53.152;5.846;2022-12-17T10:03:14;-3275.80;96.40
52787;DHT22;38661;53.152;5.846;2022-12-17T10:06:23;-3275.90;96.30
52787;DHT22;38661;53.152;5.846;2022-12-17T10:09:14;-3276.00;96.30
52787;DHT22;38661;53.152;5.846;2022-12-17T10:12:02;-3276.00;96.20
52787;DHT22;38661;53.152;5.846;2022-12-17T10:14:51;-3276.10;96.20
52787;DHT22;38661;53.152;5.846;2022-12-17T10:17:35;-3276.10;96.20
52787;DHT22;38661;53.152;5.846;2022-12-17T10:20:27;-3276.20;95.80
52787;DHT22;38661;53.152;5.846;2022-12-17T10:23:31;-3276.20;95.80
52787;DHT22;38661;53.152;5.846;2022-12-17T10:26:21;-3276.30;95.70
52787;DHT22;38661;53.152;5.846;2022-12-17T10:29:14;-3276.30;95.60
52787;DHT22;38661;53.152;5.846;2022-12-17T10:32:28;-3276.30;95.60
52787;DHT22;38661;53.152;5.846;2022-12-17T10:35:34;-3276.40;95.60
52787;DHT22;38661;53.152;5.846;2022-12-17T10:38:22;-3276.50;95.60
52787;DHT22;38661;53.152;5.846;2022-12-17T10:41:25;-3276.50;95.40
52787;DHT22;38661;53.152;5.846;2022-12-17T10:44:32;-3276.50;95.10
52787;DHT22;38661;53.152;5.846;2022-12-17T10:47:19;-3276.60;94.90
52787;DHT22;38661;53.152;5.846;2022-12-17T10:50:19;-3276.70;94.80
52787;DHT22;38661;53.152;5.846;2022-12-17T10:53:14;-3276.70;94.80
52787;DHT22;38661;53.152;5.846;2022-12-17T10:56:00;0.00;94.80
52787;DHT22;38661;53.152;5.846;2022-12-17T10:58:47;0.00;94.70
52787;DHT22;38661;53.152;5.846;2022-12-17T11:01:32;0.00;94.50
52787;DHT22;38661;53.152;5.846;2022-12-17T11:04:29;0.10;94.50
52787;DHT22;38661;53.152;5.846;2022-12-17T11:07:27;0.10;94.30
52787;DHT22;38661;53.152;5.846;2022-12-17T11:10:19;0.10;94.10
52787;DHT22;38661;53.152;5.846;2022-12-17T11:13:21;0.20;94.00
52787;DHT22;38661;53.152;5.846;2022-12-17T11:16:24;0.20;94.00
52787;DHT22;38661;53.152;5.846;2022-12-17T11:21:56;0.40;93.90
52787;DHT22;38661;53.152;5.846;2022-12-17T11:24:58;0.40;93.60
52787;DHT22;38661;53.152;5.846;2022-12-17T11:27:46;0.60;93.80
52787;DHT22;38661;53.152;5.846;2022-12-17T11:30:32;0.60;93.40
52787;DHT22;38661;53.152;5.846;2022-12-17T11:33:26;0.60;93.00
52787;DHT22;38661;53.152;5.846;2022-12-17T11:36:26;0.60;92.70
52787;DHT22;38661;53.152;5.846;2022-12-17T11:39:29;0.70;93.10
52787;DHT22;38661;53.152;5.846;2022-12-17T11:45:30;0.90;92.10
52787;DHT22;38661;53.152;5.846;2022-12-17T11:48:35;1.00;91.90
52787;DHT22;38661;53.152;5.846;2022-12-17T11:51:40;0.90;91.80
52787;DHT22;38661;53.152;5.846;2022-12-17T11:54:28;0.80;91.30
52787;DHT22;38661;53.152;5.846;2022-12-17T12:00:16;0.90;91.70
52787;DHT22;38661;53.152;5.846;2022-12-17T12:12:37;1.40;90.90
52787;DHT22;38661;53.152;5.846;2022-12-17T12:18:29;1.70;91.10
52787;DHT22;38661;53.152;5.846;2022-12-17T12:21:31;1.90;90.20
52787;DHT22;38661;53.152;5.846;2022-12-17T12:30:46;2.10;89.00
52787;DHT22;38661;53.152;5.846;2022-12-17T12:34:10;2.20;88.40
52787;DHT22;38661;53.152;5.846;2022-12-17T12:36:47;2.20;89.00
52787;DHT22;38661;53.152;5.846;2022-12-17T12:42:44;2.30;87.50
52787;DHT22;38661;53.152;5.846;2022-12-17T12:45:32;2.50;87.60
52787;DHT22;38661;53.152;5.846;2022-12-17T12:51:18;2.40;86.30
52787;DHT22;38661;53.152;5.846;2022-12-17T12:54:24;2.50;86.00
52787;DHT22;38661;53.152;5.846;2022-12-17T13:03:17;2.60;86.90
52787;DHT22;38661;53.152;5.846;2022-12-17T13:06:02;2.50;86.70
52787;DHT22;38661;53.152;5.846;2022-12-17T13:08:29;2.60;86.90
52787;DHT22;38661;53.152;5.846;2022-12-17T13:10:55;2.70;87.60
52787;DHT22;38661;53.152;5.846;2022-12-17T13:16:00;2.60;86.20
52787;DHT22;38661;53.152;5.846;2022-12-17T13:23:42;2.80;87.30
52787;DHT22;38661;53.152;5.846;2022-12-17T13:26:18;2.90;86.60
52787;DHT22;38661;53.152;5.846;2022-12-17T13:29:01;2.90;86.50
52787;DHT22;38661;53.152;5.846;2022-12-17T13:34:27;2.90;86.20
52787;DHT22;38661;53.152;5.846;2022-12-17T13:37:21;2.80;85.90
52787;DHT22;38661;53.152;5.846;2022-12-17T13:42:57;2.60;85.90
52787;DHT22;38661;53.152;5.846;2022-12-17T13:45:25;2.60;86.10
52787;DHT22;38661;53.152;5.846;2022-12-17T13:47:56;2.60;86.00
52787;DHT22;38661;53.152;5.846;2022-12-17T13:52:49;2.40;86.10
52787;DHT22;38661;53.152;5.846;2022-12-17T13:55:21;2.40;86.40
52787;DHT22;38661;53.152;5.846;2022-12-17T13:57:48;2.30;86.80
52787;DHT22;38661;53.152;5.846;2022-12-17T14:00:26;2.20;87.10
52787;DHT22;38661;53.152;5.846;2022-12-17T14:02:53;2.10;86.60
52787;DHT22;38661;53.152;5.846;2022-12-17T14:05:32;2.00;87.10
52787;DHT22;38661;53.152;5.846;2022-12-17T14:08:01;1.90;87.40
52787;DHT22;38661;53.152;5.846;2022-12-17T14:10:28;1.80;87.60
52787;DHT22;38661;53.152;5.846;2022-12-17T14:13:09;1.60;87.80
52787;DHT22;38661;53.152;5.846;2022-12-17T14:15:37;1.50;88.40
52787;DHT22;38661;53.152;5.846;2022-12-17T14:18:03;1.30;88.60
52787;DHT22;38661;53.152;5.846;2022-12-17T14:20:31;1.20;89.20
52787;DHT22;38661;53.152;5.846;2022-12-17T14:23:03;1.00;89.60
52787;DHT22;38661;53.152;5.846;2022-12-17T14:25:36;0.90;90.10
52787;DHT22;38661;53.152;5.846;2022-12-17T14:28:22;0.80;90.20
52787;DHT22;38661;53.152;5.846;2022-12-17T14:30:49;0.80;90.60
52787;DHT22;38661;53.152;5.846;2022-12-17T14:33:27;0.70;90.70
52787;DHT22;38661;53.152;5.846;2022-12-17T14:35:59;0.60;90.70
52787;DHT22;38661;53.152;5.846;2022-12-17T14:38:26;0.60;90.80
52787;DHT22;38661;53.152;5.846;2022-12-17T14:40:52;0.60;91.00
52787;DHT22;38661;53.152;5.846;2022-12-17T14:43:26;0.50;91.20
52787;DHT22;38661;53.152;5.846;2022-12-17T14:46:00;0.40;91.30
52787;DHT22;38661;53.152;5.846;2022-12-17T14:48:44;0.30;91.50
52787;DHT22;38661;53.152;5.846;2022-12-17T14:56:50;0.20;91.80
52787;DHT22;38661;53.152;5.846;2022-12-17T14:59:38;0.10;91.90
52787;DHT22;38661;53.152;5.846;2022-12-17T15:04:36;0.10;92.00
52787;DHT22;38661;53.152;5.846;2022-12-17T15:07:03;0.00;92.20
52787;DHT22;38661;53.152;5.846;2022-12-17T15:09:35;0.00;92.20
52787;DHT22;38661;53.152;5.846;2022-12-17T15:12:01;0.00;92.30
52787;DHT22;38661;53.152;5.846;2022-12-17T15:14:27;0.00;92.20
52787;DHT22;38661;53.152;5.846;2022-12-17T15:16:52;0.00;92.20
52787;DHT22;38661;53.152;5.846;2022-12-17T15:19:20;-3276.70;92.60
52787;DHT22;38661;53.152;5.846;2022-12-17T15:21:45;-3276.60;92.70
52787;DHT22;38661;53.152;5.846;2022-12-17T15:24:19;-3276.60;92.70
52787;DHT22;38661;53.152;5.846;2022-12-17T15:26:45;-3276.60;92.50
52787;DHT22;38661;53.152;5.846;2022-12-17T15:29:12;-3276.60;92.50
52787;DHT22;38661;53.152;5.846;2022-12-17T15:31:37;-3276.50;92.80
52787;DHT22;38661;53.152;5.846;2022-12-17T15:34:04;-3276.50;92.90
52787;DHT22;38661;53.152;5.846;2022-12-17T15:36:30;-3276.50;93.10
52787;DHT22;38661;53.152;5.846;2022-12-17T15:38:58;-3276.50;93.00
52787;DHT22;38661;53.152;5.846;2022-12-17T15:41:24;-3276.40;93.00
52787;DHT22;38661;53.152;5.846;2022-12-17T15:44:09;-3276.40;93.00
52787;DHT22;38661;53.152;5.846;2022-12-17T15:46:34;-3276.40;93.00
52787;DHT22;38661;53.152;5.846;2022-12-17T15:49:00;-3276.40;93.10
52787;DHT22;38661;53.152;5.846;2022-12-17T15:51:26;-3276.30;93.20
52787;DHT22;38661;53.152;5.846;2022-12-17T15:53:52;-3276.30;93.30
52787;DHT22;38661;53.152;5.846;2022-12-17T15:56:26;-3276.30;93.40
52787;DHT22;38661;53.152;5.846;2022-12-17T15:58:55;-3276.20;93.40
52787;DHT22;38661;53.152;5.846;2022-12-17T16:01:21;-3276.20;93.40
52787;DHT22;38661;53.152;5.846;2022-12-17T16:03:47;-3276.20;93.20
52787;DHT22;38661;53.152;5.846;2022-12-17T16:06:12;-3276.20;93.30
52787;DHT22;38661;53.152;5.846;2022-12-17T16:08:38;-3276.20;93.40
52787;DHT22;38661;53.152;5.846;2022-12-17T16:11:09;-3276.20;93.40
52787;DHT22;38661;53.152;5.846;2022-12-17T16:13:36;-3276.10;93.60
52787;DHT22;38661;53.152;5.846;2022-12-17T16:16:02;-3276.10;93.60
52787;DHT22;38661;53.152;5.846;2022-12-17T16:18:27;-3276.10;93.60
52787;DHT22;38661;53.152;5.846;2022-12-17T16:20:53;-3276.10;93.60
52787;DHT22;38661;53.152;5.846;2022-12-17T16:23:20;-3276.10;93.50
52787;DHT22;38661;53.152;5.846;2022-12-17T16:25:58;-3276.00;93.50
52787;DHT22;38661;53.152;5.846;2022-12-17T16:28:25;-3276.00;93.50
52787;DHT22;38661;53.152;5.846;2022-12-17T16:31:26;-3276.00;93.50
52787;DHT22;38661;53.152;5.846;2022-12-17T16:33:52;-3276.00;93.70
52787;DHT22;38661;53.152;5.846;2022-12-17T16:36:19;-3276.00;93.80
52787;DHT22;38661;53.152;5.846;2022-12-17T16:38:52;-3275.90;93.70
52787;DHT22;38661;53.152;5.846;2022-12-17T16:41:20;-3275.90;93.80
52787;DHT22;38661;53.152;5.846;2022-12-17T16:43:46;-3275.90;93.60
52787;DHT22;38661;53.152;5.846;2022-12-17T16:46:31;-3275.90;93.80
52787;DHT22;38661;53.152;5.846;2022-12-17T16:48:58;-3275.80;94.00
52787;DHT22;38661;53.152;5.846;2022-12-17T16:51:26;-3275.80;93.90
52787;DHT22;38661;53.152;5.846;2022-12-17T16:53:52;-3275.80;93.90
52787;DHT22;38661;53.152;5.846;2022-12-17T16:56:21;-3275.80;93.90
52787;DHT22;38661;53.152;5.846;2022-12-17T16:58:48;-3275.70;94.00
52787;DHT22;38661;53.152;5.846;2022-12-17T17:01:22;-3275.70;94.00
52787;DHT22;38661;53.152;5.846;2022-12-17T17:03:48;-3275.70;93.90
52787;DHT22;38661;53.152;5.846;2022-12-17T17:06:16;-3275.70;93.90
52787;DHT22;38661;53.152;5.846;2022-12-17T17:08:42;-3275.60;94.00
52787;DHT22;38661;53.152;5.846;2022-12-17T17:11:24;-3275.60;93.90
52787;DHT22;38661;53.152;5.846;2022-12-17T17:13:51;-3275.50;94.00
52787;DHT22;38661;53.152;5.846;2022-12-17T17:16:19;-3275.50;94.00
52787;DHT22;38661;53.152;5.846;2022-12-17T17:18:45;-3275.50;94.10
52787;DHT22;38661;53.152;5.846;2022-12-17T17:23:44;-3275.50;94.30
52787;DHT22;38661;53.152;5.846;2022-12-17T17:26:11;-3275.50;94.30
52787;DHT22;38661;53.152;5.846;2022-12-17T17:28:37;-3275.40;94.10
52787;DHT22;38661;53.152;5.846;2022-12-17T17:31:06;-3275.40;94.10
52787;DHT22;38661;53.152;5.846;2022-12-17T17:33:37;-3275.40;94.30
52787;DHT22;38661;53.152;5.846;2022-12-17T17:36:08;-3275.40;94.20
52787;DHT22;38661;53.152;5.846;2022-12-17T17:38:35;-3275.40;94.40
52787;DHT22;38661;53.152;5.846;2022-12-17T17:41:02;-3275.40;94.40
52787;DHT22;38661;53.152;5.846;2022-12-17T17:43:28;-3275.30;94.60
52787;DHT22;38661;53.152;5.846;2022-12-17T17:45:53;-3275.30;94.60
52787;DHT22;38661;53.152;5.846;2022-12-17T17:48:20;-3275.30;94.60